createdAt,value
2019-03-29T00:00:42.153Z,7.58
2019-03-29T00:03:39.292Z,7.54
2019-03-29T00:06:37.296Z,7.51
2019-03-29T00:09:32.743Z,7.50
2019-03-29T00:12:31.280Z,7.46
2019-03-29T00:15:26.169Z,7.43
2019-03-29T00:18:23.689Z,7.41
2019-03-29T00:21:20.971Z,7.38
2019-03-29T00:24:19.203Z,7.33
2019-03-29T00:27:15.249Z,7.29
2019-03-29T00:30:12.507Z,7.25
2019-03-29T00:33:09.830Z,7.20
2019-03-29T00:36:06.855Z,7.14
2019-03-29T00:39:04.168Z,7.12
2019-03-29T00:42:00.409Z,7.07
2019-03-29T00:44:58.866Z,7.04
2019-03-29T00:47:56.113Z,6.98
2019-03-29T00:50:53.033Z,6.94
2019-03-29T00:53:49.128Z,6.90
2019-03-29T00:56:46.152Z,6.88
2019-03-29T00:59:44.443Z,6.84
2019-03-29T01:02:40.889Z,6.82
2019-03-29T01:05:37.969Z,6.81
2019-03-29T01:08:34.267Z,6.81
2019-03-29T01:11:32.542Z,6.79
2019-03-29T01:14:29.152Z,6.77
2019-03-29T01:17:26.280Z,6.77
2019-03-29T01:20:25.654Z,6.75
2019-03-29T01:23:24.576Z,6.72
2019-03-29T01:26:21.661Z,6.70
2019-03-29T01:29:18.468Z,6.68
2019-03-29T01:32:16.351Z,6.66
2019-03-29T01:35:13.389Z,6.65
2019-03-29T01:38:21.253Z,6.62
2019-03-29T01:41:06.638Z,6.61
2019-03-29T01:44:02.264Z,6.56
2019-03-29T01:46:59.313Z,6.54
2019-03-29T01:49:56.675Z,6.48
2019-03-29T01:52:53.945Z,6.41
2019-03-29T01:55:51.172Z,6.34
2019-03-29T01:58:47.022Z,6.35
2019-03-29T02:01:45.021Z,6.34
2019-03-29T02:04:42.326Z,6.32
2019-03-29T02:07:38.681Z,6.29
2019-03-29T02:10:35.774Z,6.24
2019-03-29T02:13:32.682Z,6.21
2019-03-29T02:16:29.926Z,6.18
2019-03-29T02:19:26.193Z,6.16
2019-03-29T02:22:23.509Z,6.15
2019-03-29T02:25:20.653Z,6.13
2019-03-29T02:28:18.888Z,6.10
2019-03-29T02:31:13.964Z,6.07
2019-03-29T02:34:11.208Z,6.06
2019-03-29T02:37:07.498Z,6.06
2019-03-29T02:40:03.781Z,6.07
2019-03-29T02:43:01.881Z,6.03
2019-03-29T02:45:58.255Z,5.97
2019-03-29T02:48:56.684Z,5.92
2019-03-29T02:51:52.779Z,5.88
2019-03-29T02:54:50.661Z,5.85
2019-03-29T02:57:48.008Z,5.79
2019-03-29T03:00:45.364Z,5.75
2019-03-29T03:03:43.632Z,5.70
2019-03-29T03:06:39.692Z,5.68
2019-03-29T03:09:36.677Z,5.68
2019-03-29T03:12:33.448Z,5.66
2019-03-29T03:15:31.045Z,5.64
2019-03-29T03:18:28.389Z,5.62
2019-03-29T03:21:24.410Z,5.60
2019-03-29T03:24:22.534Z,5.56
2019-03-29T03:27:18.939Z,5.55
2019-03-29T03:30:16.309Z,5.54
2019-03-29T03:33:12.528Z,5.52
2019-03-29T03:36:08.243Z,5.50
2019-03-29T03:39:05.283Z,5.48
2019-03-29T03:42:01.300Z,5.48
2019-03-29T03:44:59.293Z,5.46
2019-03-29T03:47:55.040Z,5.44
2019-03-29T03:51:06.717Z,5.45
2019-03-29T03:54:04.513Z,5.43
2019-03-29T03:57:00.573Z,5.41
2019-03-29T03:59:57.254Z,5.40
2019-03-29T04:02:54.606Z,5.40
2019-03-29T04:05:52.683Z,5.39
2019-03-29T04:08:50.121Z,5.36
2019-03-29T04:11:46.020Z,5.34
2019-03-29T04:14:43.768Z,5.32
2019-03-29T04:17:39.098Z,5.30
2019-03-29T04:20:36.248Z,5.28
2019-03-29T04:23:32.288Z,5.26
2019-03-29T04:26:30.686Z,5.25
2019-03-29T04:29:27.931Z,5.28
2019-03-29T04:32:25.216Z,5.28
2019-03-29T04:35:23.505Z,5.28
2019-03-29T04:38:19.820Z,5.26
2019-03-29T04:41:17.064Z,5.22
2019-03-29T04:44:13.348Z,5.20
2019-03-29T04:47:09.559Z,5.20
2019-03-29T04:50:05.649Z,5.17
2019-03-29T04:53:02.795Z,5.17
2019-03-29T04:55:59.897Z,5.17
2019-03-29T04:58:56.763Z,5.14
2019-03-29T05:01:53.443Z,5.11
2019-03-29T05:04:50.214Z,5.10
2019-03-29T05:07:48.253Z,5.10
2019-03-29T05:10:44.495Z,5.10
2019-03-29T05:13:40.723Z,5.08
2019-03-29T05:16:38.809Z,5.09
2019-03-29T05:19:35.996Z,5.09
2019-03-29T05:22:32.980Z,5.10
2019-03-29T05:25:30.023Z,5.10
2019-03-29T05:28:28.131Z,5.13
2019-03-29T05:31:24.107Z,5.16
2019-03-29T05:34:21.135Z,5.19
2019-03-29T05:37:18.416Z,5.23
2019-03-29T05:40:14.224Z,5.24
2019-03-29T05:43:11.013Z,5.25
2019-03-29T05:46:08.321Z,5.28
2019-03-29T05:49:05.883Z,5.31
2019-03-29T05:52:01.957Z,5.33
2019-03-29T05:55:00.324Z,5.41
2019-03-29T05:57:55.979Z,5.41
2019-03-29T06:00:53.243Z,5.45
2019-03-29T06:03:50.109Z,5.49
2019-03-29T06:06:48.355Z,5.54
2019-03-29T06:09:44.729Z,5.59
2019-03-29T06:12:40.756Z,5.61
2019-03-29T06:15:37.792Z,5.71
2019-03-29T06:18:33.836Z,5.75
2019-03-29T06:21:30.904Z,5.76
2019-03-29T06:24:28.256Z,5.83
2019-03-29T06:27:26.462Z,5.87
2019-03-29T06:30:24.545Z,5.94
2019-03-29T06:33:20.654Z,5.99
2019-03-29T06:36:18.148Z,6.07
2019-03-29T06:39:13.838Z,6.13
2019-03-29T06:42:11.150Z,6.18
2019-03-29T06:45:08.358Z,6.28
2019-03-29T06:48:05.488Z,6.32
2019-03-29T06:51:01.159Z,6.42
2019-03-29T06:53:58.212Z,6.48
2019-03-29T06:56:54.228Z,6.61
2019-03-29T06:59:50.762Z,6.76
2019-03-29T07:02:48.557Z,6.87
2019-03-29T07:05:44.600Z,6.90
2019-03-29T07:08:42.679Z,6.97
2019-03-29T07:11:39.788Z,7.01
2019-03-29T07:14:35.716Z,7.05
2019-03-29T07:17:33.715Z,7.09
2019-03-29T07:20:30.102Z,7.18
2019-03-29T07:23:27.373Z,7.27
2019-03-29T07:26:26.328Z,7.33
2019-03-29T07:29:24.798Z,7.44
2019-03-29T07:32:23.033Z,7.58
2019-03-29T07:35:19.107Z,7.77
2019-03-29T07:38:16.454Z,7.77
2019-03-29T07:41:12.775Z,7.86
2019-03-29T07:44:09.341Z,7.98
2019-03-29T07:47:06.580Z,8.09
2019-03-29T07:50:03.837Z,8.18
2019-03-29T07:52:59.116Z,8.31
2019-03-29T07:55:56.188Z,8.47
2019-03-29T07:58:54.277Z,8.63
2019-03-29T08:01:50.711Z,8.77
2019-03-29T08:04:49.164Z,8.91
2019-03-29T08:07:46.393Z,8.94
2019-03-29T08:10:43.504Z,9.03
2019-03-29T08:13:40.481Z,9.07
2019-03-29T08:16:37.462Z,9.06
2019-03-29T08:19:37.100Z,9.13
2019-03-29T08:22:30.424Z,9.21
2019-03-29T08:25:27.821Z,9.28
2019-03-29T08:28:24.841Z,9.35
2019-03-29T08:31:21.829Z,9.45
2019-03-29T08:34:19.897Z,9.61
2019-03-29T08:37:17.932Z,9.84
2019-03-29T08:40:17.073Z,9.89
2019-03-29T08:43:13.101Z,9.96
2019-03-29T08:46:10.143Z,10.09
2019-03-29T08:49:07.249Z,10.14
2019-03-29T08:52:04.590Z,10.21
2019-03-29T08:55:01.962Z,10.23
2019-03-29T08:57:58.954Z,10.30
2019-03-29T09:00:55.974Z,10.40
2019-03-29T09:04:04.681Z,10.54
2019-03-29T09:06:53.675Z,10.62
2019-03-29T09:09:46.568Z,10.65
2019-03-29T09:12:43.587Z,10.78
2019-03-29T09:15:40.695Z,10.83
2019-03-29T09:18:36.970Z,10.82
2019-03-29T09:21:35.638Z,10.89
2019-03-29T09:24:30.997Z,10.86
2019-03-29T09:27:31.726Z,10.99
2019-03-29T09:30:27.411Z,11.07
2019-03-29T09:33:23.688Z,11.13
2019-03-29T09:36:26.074Z,11.29
2019-03-29T09:39:23.193Z,11.32
2019-03-29T09:42:29.186Z,11.39
2019-03-29T09:45:17.789Z,11.50
2019-03-29T09:48:15.755Z,11.47
2019-03-29T09:51:12.905Z,11.49
2019-03-29T09:54:07.566Z,11.58
2019-03-29T09:57:03.992Z,11.73
2019-03-29T10:00:00.940Z,11.79
2019-03-29T10:02:57.993Z,11.80
2019-03-29T10:05:53.889Z,11.84
2019-03-29T10:08:53.418Z,11.98
2019-03-29T10:11:48.900Z,12.02
2019-03-29T10:14:44.522Z,12.01
2019-03-29T10:17:41.673Z,12.11
2019-03-29T10:20:39.091Z,12.39
2019-03-29T10:23:36.290Z,12.51
2019-03-29T10:26:32.936Z,12.60
2019-03-29T10:29:30.422Z,12.72
2019-03-29T10:32:28.281Z,12.75
2019-03-29T10:35:24.627Z,12.77
2019-03-29T10:38:25.123Z,12.81
2019-03-29T10:41:22.692Z,12.98
2019-03-29T10:44:18.509Z,12.95
2019-03-29T10:47:15.813Z,13.01
2019-03-29T10:50:13.126Z,13.02
2019-03-29T10:53:10.224Z,12.88
2019-03-29T10:56:06.516Z,12.74
2019-03-29T10:59:03.595Z,12.78
2019-03-29T11:01:59.925Z,12.87
2019-03-29T11:04:57.152Z,12.90
2019-03-29T11:07:54.155Z,13.03
2019-03-29T11:10:53.048Z,13.18
2019-03-29T11:13:50.381Z,13.27
2019-03-29T11:16:46.485Z,13.34
2019-03-29T11:19:44.684Z,13.35
2019-03-29T11:22:40.850Z,13.28
2019-03-29T11:25:37.813Z,13.36
2019-03-29T11:28:34.427Z,13.44
2019-03-29T11:31:30.705Z,13.39
2019-03-29T11:34:28.005Z,13.42
2019-03-29T11:37:24.937Z,13.44
2019-03-29T11:40:24.306Z,13.50
2019-03-29T11:43:27.221Z,13.48
2019-03-29T11:46:17.259Z,13.51
2019-03-29T11:49:14.281Z,13.61
2019-03-29T11:52:11.551Z,13.67
2019-03-29T11:55:08.165Z,13.55
2019-03-29T11:58:04.239Z,13.54
2019-03-29T12:01:05.298Z,13.74
2019-03-29T12:03:59.073Z,13.82
2019-03-29T12:06:54.911Z,13.84
2019-03-29T12:09:51.895Z,14.00
2019-03-29T12:12:52.188Z,14.09
2019-03-29T12:15:48.862Z,14.05
2019-03-29T12:18:50.013Z,13.99
2019-03-29T12:21:49.405Z,14.01
2019-03-29T12:24:46.637Z,14.04
2019-03-29T12:27:42.316Z,14.04
2019-03-29T12:30:39.750Z,13.92
2019-03-29T12:33:35.319Z,14.04
2019-03-29T12:36:33.538Z,14.23
2019-03-29T12:39:31.716Z,14.32
2019-03-29T12:42:28.945Z,14.32
2019-03-29T12:45:26.159Z,14.42
2019-03-29T12:48:22.810Z,14.46
2019-03-29T12:51:21.057Z,14.43
2019-03-29T12:54:17.467Z,14.39
2019-03-29T12:57:14.110Z,14.51
2019-03-29T13:00:11.014Z,14.50
2019-03-29T13:03:08.270Z,14.49
2019-03-29T13:06:05.617Z,14.52
2019-03-29T13:09:01.866Z,14.56
2019-03-29T13:11:59.683Z,14.61
2019-03-29T13:14:56.024Z,14.74
2019-03-29T13:17:53.457Z,14.80
2019-03-29T13:20:50.462Z,14.89
2019-03-29T13:23:45.842Z,14.92
2019-03-29T13:26:41.907Z,14.91
2019-03-29T13:29:38.028Z,14.87
2019-03-29T13:32:35.350Z,14.90
2019-03-29T13:35:33.400Z,14.95
2019-03-29T13:38:31.759Z,15.00
2019-03-29T13:41:29.080Z,15.05
2019-03-29T13:44:28.250Z,15.15
2019-03-29T13:47:24.835Z,15.27
2019-03-29T13:50:20.530Z,15.23
2019-03-29T13:53:17.753Z,15.29
2019-03-29T13:56:15.046Z,15.31
2019-03-29T13:59:11.164Z,15.47
2019-03-29T14:02:08.266Z,15.54
2019-03-29T14:05:04.428Z,15.59
2019-03-29T14:08:01.561Z,15.63
2019-03-29T14:10:57.701Z,15.64
2019-03-29T14:13:54.760Z,15.61
2019-03-29T14:16:51.861Z,15.74
2019-03-29T14:19:48.171Z,15.93
2019-03-29T14:22:45.888Z,16.10
2019-03-29T14:25:42.220Z,16.12
2019-03-29T14:28:39.413Z,16.25
2019-03-29T14:31:35.400Z,16.42
2019-03-29T14:34:33.705Z,16.50
2019-03-29T14:37:30.540Z,16.60
2019-03-29T14:40:27.651Z,16.65
2019-03-29T14:43:25.247Z,16.76
2019-03-29T14:46:22.586Z,16.82
2019-03-29T14:49:19.007Z,17.00
2019-03-29T14:52:15.106Z,17.40
2019-03-29T14:55:16.242Z,17.71
2019-03-29T14:58:14.406Z,18.26
2019-03-29T15:01:10.551Z,18.64
2019-03-29T15:04:08.849Z,18.93
2019-03-29T15:07:04.982Z,18.98
2019-03-29T15:10:02.386Z,18.76
2019-03-29T15:12:58.429Z,18.65
2019-03-29T15:15:55.524Z,18.67
2019-03-29T15:18:51.670Z,18.58
2019-03-29T15:21:50.210Z,18.39
2019-03-29T15:24:48.092Z,18.56
2019-03-29T15:27:44.291Z,18.68
2019-03-29T15:30:42.901Z,18.66
2019-03-29T15:33:39.932Z,18.47
2019-03-29T15:36:37.063Z,18.35
2019-03-29T15:39:33.400Z,18.29
2019-03-29T15:42:30.775Z,18.20
2019-03-29T15:45:28.963Z,17.82
2019-03-29T15:48:27.250Z,17.50
2019-03-29T15:51:30.614Z,17.11
2019-03-29T15:54:27.940Z,16.64
2019-03-29T15:57:26.324Z,16.33
2019-03-29T16:00:22.462Z,16.08
2019-03-29T16:03:19.290Z,15.73
2019-03-29T16:06:16.791Z,15.54
2019-03-29T16:09:13.991Z,15.43
2019-03-29T16:12:22.378Z,15.30
2019-03-29T16:15:33.165Z,15.10
2019-03-29T16:18:28.095Z,14.96
2019-03-29T16:21:37.134Z,14.86
2019-03-29T16:24:42.818Z,14.71
2019-03-29T16:27:41.215Z,14.61
2019-03-29T16:30:37.499Z,14.49
2019-03-29T16:33:34.576Z,14.42
2019-03-29T16:36:30.690Z,14.35
2019-03-29T16:39:28.127Z,14.31
2019-03-29T16:42:24.170Z,14.22
2019-03-29T16:45:22.310Z,14.13
2019-03-29T16:48:20.633Z,14.04
2019-03-29T16:51:16.587Z,13.93
2019-03-29T16:54:14.015Z,13.84
2019-03-29T16:57:11.389Z,13.74
2019-03-29T17:00:12.021Z,13.69
2019-03-29T17:03:05.733Z,13.58
2019-03-29T17:06:02.963Z,13.51
2019-03-29T17:09:00.322Z,13.44
2019-03-29T17:11:55.326Z,13.36
2019-03-29T17:14:50.935Z,13.26
2019-03-29T17:17:46.999Z,13.20
2019-03-29T17:20:50.681Z,13.15
2019-03-29T17:23:47.405Z,13.08
2019-03-29T17:26:43.700Z,12.99
2019-03-29T17:29:40.988Z,12.90
2019-03-29T17:32:37.091Z,12.80
2019-03-29T17:35:34.269Z,12.73
2019-03-29T17:38:34.276Z,12.64
2019-03-29T17:41:31.679Z,12.53
2019-03-29T17:44:28.046Z,12.44
2019-03-29T17:47:24.980Z,12.37
2019-03-29T17:50:25.299Z,12.27
2019-03-29T17:53:20.647Z,12.19
2019-03-29T17:56:19.565Z,12.12
2019-03-29T17:59:17.147Z,12.04
2019-03-29T18:14:37.936Z,11.68
2019-03-29T18:17:08.878Z,11.59
2019-03-29T18:19:40.593Z,11.55
2019-03-29T18:22:12.354Z,11.50
2019-03-29T18:24:44.143Z,11.45
2019-03-29T18:27:15.198Z,11.42
2019-03-29T18:29:47.138Z,11.38
2019-03-29T18:32:18.384Z,11.34
2019-03-29T18:34:49.776Z,11.29
2019-03-29T18:37:21.224Z,11.23
2019-03-29T18:39:54.846Z,11.18
2019-03-29T18:42:25.275Z,11.14
2019-03-29T18:44:56.245Z,11.08
2019-03-29T18:47:27.244Z,11.03
2019-03-29T18:49:58.107Z,10.96
2019-03-29T18:52:29.048Z,10.93
2019-03-29T18:54:59.985Z,10.88
2019-03-29T18:57:32.508Z,10.83
2019-03-29T19:00:04.875Z,10.79
2019-03-29T19:02:35.797Z,10.74
2019-03-29T19:05:06.991Z,10.68
2019-03-29T19:07:40.353Z,10.61
2019-03-29T19:10:11.450Z,10.56
2019-03-29T19:12:42.580Z,10.46
2019-03-29T19:15:13.722Z,10.37
2019-03-29T19:17:46.594Z,10.27
2019-03-29T19:20:27.402Z,10.17
2019-03-29T19:22:52.119Z,10.07
2019-03-29T19:25:23.857Z,10.00
2019-03-29T19:27:54.883Z,9.92
2019-03-29T19:30:26.036Z,9.82
2019-03-29T19:32:57.991Z,9.76
2019-03-29T19:35:28.869Z,9.62
2019-03-29T19:38:01.882Z,9.62
2019-03-29T19:40:32.798Z,9.55
2019-03-29T19:43:06.919Z,9.49
2019-03-29T19:45:41.108Z,9.40
2019-03-29T19:48:12.066Z,9.20
2019-03-29T19:50:43.038Z,9.20
2019-03-29T19:53:16.904Z,9.17
2019-03-29T19:55:50.836Z,9.11
2019-03-29T19:58:22.244Z,9.04
2019-03-29T20:00:53.311Z,8.98
2019-03-29T20:03:25.183Z,8.94
2019-03-29T20:05:57.486Z,8.88
2019-03-29T20:08:30.230Z,8.81
2019-03-29T20:11:01.216Z,8.75
2019-03-29T20:13:32.105Z,8.70
2019-03-29T20:16:03.173Z,8.64
2019-03-29T20:18:37.775Z,8.56
2019-03-29T20:21:08.880Z,8.47
2019-03-29T20:23:43.311Z,8.36
2019-03-29T20:26:15.376Z,8.24
2019-03-29T20:28:49.241Z,8.20
2019-03-29T20:31:24.844Z,8.11
2019-03-29T20:33:55.795Z,8.05
2019-03-29T20:36:27.277Z,8.01
2019-03-29T20:38:58.555Z,7.96
2019-03-29T20:41:29.843Z,7.92
2019-03-29T20:44:00.772Z,7.81
2019-03-29T20:46:35.052Z,7.69
2019-03-29T20:49:08.455Z,7.63
2019-03-29T20:51:41.521Z,7.59
2019-03-29T20:54:16.032Z,7.56
2019-03-29T20:56:48.891Z,7.52
2019-03-29T20:59:20.752Z,7.46
2019-03-29T21:01:53.693Z,7.42
2019-03-29T21:04:24.837Z,7.36
2019-03-29T21:06:57.614Z,7.29
2019-03-29T21:09:28.727Z,7.21
2019-03-29T21:11:59.731Z,7.16
2019-03-29T21:14:36.688Z,7.11
2019-03-29T21:17:07.288Z,7.07
2019-03-29T21:19:40.011Z,7.02
2019-03-29T21:22:11.107Z,6.99
2019-03-29T21:24:42.186Z,6.96
2019-03-29T21:27:13.152Z,6.93
2019-03-29T21:29:45.120Z,6.91
2019-03-29T21:32:19.260Z,6.87
2019-03-29T21:34:50.294Z,6.83
2019-03-29T21:37:21.206Z,6.77
2019-03-29T21:39:52.566Z,6.72
2019-03-29T21:42:23.491Z,6.68
2019-03-29T21:44:55.212Z,6.67
2019-03-29T21:47:28.285Z,6.64
2019-03-29T21:49:59.918Z,6.57
2019-03-29T21:52:33.628Z,6.54
2019-03-29T21:55:05.521Z,6.53
2019-03-29T21:57:37.427Z,6.37
2019-03-29T22:00:10.188Z,6.40
2019-03-29T22:02:41.072Z,6.36
2019-03-29T22:05:12.769Z,6.32
2019-03-29T22:07:43.646Z,6.29
2019-03-29T22:10:14.606Z,6.26
2019-03-29T22:12:45.390Z,6.22
2019-03-29T22:15:16.186Z,6.16
2019-03-29T22:17:47.213Z,6.12
2019-03-29T22:20:18.013Z,6.11
2019-03-29T22:22:48.880Z,6.08
2019-03-29T22:25:19.627Z,6.07
2019-03-29T22:27:50.376Z,6.06
2019-03-29T22:30:21.128Z,6.05
2019-03-29T22:32:51.884Z,6.06
2019-03-29T22:35:24.070Z,6.03
2019-03-29T22:37:54.923Z,5.98
2019-03-29T22:40:25.638Z,5.90
2019-03-29T22:42:56.674Z,5.93
2019-03-29T22:45:27.372Z,5.90
2019-03-29T22:47:58.148Z,5.89
2019-03-29T22:50:28.973Z,5.87
2019-03-29T22:53:00.457Z,5.83
2019-03-29T22:55:32.003Z,5.80
2019-03-29T22:58:03.787Z,5.80
2019-03-29T23:00:37.711Z,5.81
2019-03-29T23:03:08.904Z,5.81
2019-03-29T23:05:39.661Z,5.77
2019-03-29T23:08:10.357Z,5.74
2019-03-29T23:10:41.116Z,5.70
2019-03-29T23:13:11.821Z,5.65
2019-03-29T23:15:42.576Z,5.56
2019-03-29T23:18:14.220Z,5.48
2019-03-29T23:20:47.172Z,5.39
2019-03-29T23:23:17.889Z,5.31
2019-03-29T23:25:50.156Z,5.24
2019-03-29T23:28:20.909Z,5.19
2019-03-29T23:30:51.695Z,5.14
2019-03-29T23:33:22.488Z,5.12
2019-03-29T23:35:53.233Z,5.09
2019-03-29T23:38:23.973Z,5.10
2019-03-29T23:40:54.770Z,5.11
2019-03-29T23:43:25.532Z,5.11
2019-03-29T23:45:57.062Z,5.13
2019-03-29T23:48:27.824Z,5.17
2019-03-29T23:50:58.560Z,5.21
2019-03-29T23:53:29.291Z,5.22
2019-03-29T23:56:00.036Z,5.16
2019-03-29T23:58:30.728Z,5.09
